Time;durP1;ratioP1;P1;durP2;ratioP2;P2;SDS_P1;SDS_P2;PMS_P1;PMS_P2;Temp;Humidity;BMP_temperature;BMP_pressure;BME280_temperature;BME280_humidity;BME280_pressure;Samples;Min_cycle;Max_cycle;Signal;HPM_P1;HPM_P2
2022/10/18 00:00:24;;;;;;;10.40;6.50;;;;;;;10.80;50.26;102923.63;5041664;28;20903;-60
2022/10/18 00:02:50;;;;;;;13.10;6.30;;;;;;;10.75;50.28;102923.13;5038821;28;20486;-61
2022/10/18 00:05:15;;;;;;;10.48;6.43;;;;;;;10.72;50.16;102924.22;5040280;28;20377;-61
2022/10/18 00:07:41;;;;;;;10.57;6.67;;;;;;;10.58;50.35;102919.13;5040719;28;20384;-62
2022/10/18 00:10:07;;;;;;;12.00;6.67;;;;;;;10.50;50.46;102925.84;5026374;28;20426;-62
2022/10/18 00:14:43;;;;;;;9.70;6.00;;;;;;;10.44;50.57;102926.31;5082066;27;20788;-60
2022/10/18 00:19:45;;;;;;;9.68;6.25;;;;;;;10.31;50.88;102926.34;5083640;27;20413;-61
2022/10/18 00:22:11;;;;;;;11.27;6.60;;;;;;;10.20;51.00;102926.28;5014120;28;20412;-61
2022/10/18 00:24:36;;;;;;;9.50;5.97;;;;;;;10.16;51.18;102913.38;5006772;28;20381;-62
2022/10/18 00:27:02;;;;;;;8.35;5.93;;;;;;;10.17;50.97;102917.72;5015996;28;20451;-60
2022/10/18 00:29:27;;;;;;;9.27;6.43;;;;;;;10.12;51.41;102915.41;5020915;28;21291;-61
2022/10/18 00:33:28;;;;;;;11.95;6.53;;;;;;;10.16;51.30;102916.03;5083394;27;20401;-60
2022/10/18 00:35:54;;;;;;;12.00;6.43;;;;;;;10.10;50.92;102907.56;5014433;28;20878;-60
2022/10/18 00:39:59;;;;;;;9.48;5.95;;;;;;;10.10;51.30;102917.31;5073975;27;20950;-60
2022/10/18 00:42:29;;;;;;;11.75;6.65;;;;;;;10.06;51.02;102907.91;5016299;28;20409;-60
2022/10/18 00:45:13;;;;;;;12.00;6.47;;;;;;;10.03;50.92;102895.72;5020980;28;20440;-61
2022/10/18 00:47:39;;;;;;;11.20;6.50;;;;;;;9.99;51.37;102901.34;5018527;28;20387;-60
2022/10/18 00:50:07;;;;;;;9.63;6.55;;;;;;;9.97;51.12;102897.97;5012917;28;20387;-60
2022/10/18 00:52:39;;;;;;;10.02;6.50;;;;;;;9.88;51.26;102897.66;5026921;28;20390;-60
2022/10/18 00:55:05;;;;;;;10.55;6.20;;;;;;;9.90;51.22;102902.88;5020447;28;20395;-61
2022/10/18 00:57:31;;;;;;;11.30;5.97;;;;;;;9.87;51.52;102906.59;5015909;28;20428;-60
2022/10/18 00:59:57;;;;;;;14.30;6.20;;;;;;;9.85;50.88;102889.09;5026845;28;20394;-60
2022/10/18 01:02:23;;;;;;;13.20;6.50;;;;;;;9.85;51.40;102895.28;5023278;28;20381;-60
2022/10/18 01:04:48;;;;;;;10.73;6.45;;;;;;;9.74;50.97;102884.59;5017250;28;20399;-61
2022/10/18 01:07:44;;;;;;;8.83;6.30;;;;;;;9.76;50.87;102891.47;5024132;28;20379;-61
2022/10/18 01:15:02;;;;;;;11.15;6.70;;;;;;;9.65;51.76;102883.47;5089134;27;20778;-62
2022/10/18 01:21:10;;;;;;;12.20;6.70;;;;;;;9.64;51.65;102884.41;5060016;27;20791;-61
2022/10/18 01:24:00;;;;;;;10.60;6.50;;;;;;;9.61;51.80;102883.78;5026930;28;20399;-61
2022/10/18 01:27:08;;;;;;;19.17;7.70;;;;;;;9.56;51.81;102879.69;5053809;27;20404;-60
2022/10/18 01:31:56;;;;;;;8.18;6.07;;;;;;;9.45;51.78;102871.63;5076574;27;20917;-60
2022/10/18 01:34:26;;;;;;;11.60;6.55;;;;;;;9.46;51.64;102869.84;5046343;28;20811;-60
2022/10/18 01:36:54;;;;;;;10.60;6.70;;;;;;;9.45;52.10;102873.44;5046789;28;20876;-63
2022/10/18 01:39:33;;;;;;;10.93;6.47;;;;;;;9.45;52.27;102878.75;5047112;28;20795;-61
2022/10/18 01:42:01;;;;;;;14.98;6.47;;;;;;;9.40;51.71;102868.50;5046803;28;20871;-61
2022/10/18 01:46:55;;;;;;;9.77;6.03;;;;;;;9.37;51.69;102860.75;5078071;27;20411;-62
2022/10/18 01:49:21;;;;;;;10.87;6.07;;;;;;;9.35;51.97;102868.81;5035021;28;20452;-62
2022/10/18 01:53:52;;;;;;;11.20;6.40;;;;;;;9.35;51.73;102866.16;5131107;27;857356;-66
2022/10/18 01:59:07;;;;;;;10.13;6.33;;;;;;;9.26;51.81;102858.88;5120064;27;848454;-60
2022/10/18 02:02:04;;;;;;;9.35;5.97;;;;;;;9.25;52.12;102864.28;5146658;27;20496;-59
2022/10/18 02:08:10;;;;;;;27.73;15.75;;;;;;;9.21;52.12;102860.16;5072797;27;20863;-60
2022/10/18 02:12:18;;;;;;;13.75;8.40;;;;;;;9.14;51.84;102855.28;5075818;27;20413;-61
2022/10/18 02:14:45;;;;;;;12.93;7.63;;;;;;;9.13;51.99;102856.25;5031554;28;20482;-60
2022/10/18 02:17:13;;;;;;;11.27;6.50;;;;;;;9.13;52.11;102858.91;5029012;28;20421;-60
2022/10/18 02:21:17;;;;;;;12.05;6.18;;;;;;;9.05;51.89;102855.09;5086136;27;20402;-60
2022/10/18 02:23:45;;;;;;;9.55;6.32;;;;;;;9.01;51.82;102858.91;5065694;28;20414;-63
2022/10/18 02:28:07;;;;;;;42.05;24.58;;;;;;;8.87;52.32;102851.94;5059450;27;20408;-59
2022/10/18 02:30:43;;;;;;;18.52;12.73;;;;;;;8.87;52.08;102855.41;5044040;28;20402;-60
2022/10/18 02:33:26;;;;;;;10.95;7.07;;;;;;;8.88;51.95;102856.28;5038199;28;20405;-60
2022/10/18 02:35:58;;;;;;;11.93;7.00;;;;;;;8.87;51.94;102862.50;5036702;28;20766;-61
2022/10/18 02:38:54;;;;;;;13.85;8.00;;;;;;;8.88;51.70;102853.63;5067683;27;20406;-59
2022/10/18 02:41:27;;;;;;;11.20;7.30;;;;;;;8.88;51.97;102858.91;5038995;28;20451;-59
2022/10/18 02:43:53;;;;;;;25.20;12.73;;;;;;;8.78;52.01;102867.47;5018808;28;20412;-58
2022/10/18 02:47:09;;;;;;;22.23;11.23;;;;;;;8.76;51.95;102863.25;5039627;27;20420;-59
2022/10/18 02:49:35;;;;;;;25.50;11.40;;;;;;;8.76;51.94;102863.25;5017840;28;20437;-58
2022/10/18 02:52:00;;;;;;;12.52;7.25;;;;;;;8.74;52.11;102865.16;5026394;28;20413;-60
2022/10/18 02:54:25;;;;;;;10.50;7.07;;;;;;;8.73;51.60;102861.66;5045999;28;20431;-60
2022/10/18 03:03:43;;;;;;;12.25;7.55;;;;;;;8.57;52.11;102867.16;5064075;27;20408;-60
2022/10/18 03:06:08;;;;;;;13.68;8.40;;;;;;;8.58;51.81;102870.63;5024771;28;20400;-59
2022/10/18 03:09:53;;;;;;;17.63;7.40;;;;;;;8.54;51.99;102866.50;5058881;27;20408;-60
2022/10/18 03:12:18;;;;;;;15.38;7.05;;;;;;;8.47;51.90;102852.84;5023302;28;20396;-62
2022/10/18 03:14:44;;;;;;;13.87;7.50;;;;;;;8.51;52.01;102856.97;5023321;28;20400;-63
2022/10/18 03:17:09;;;;;;;14.33;7.40;;;;;;;8.51;51.91;102862.25;5022630;28;20505;-58
2022/10/18 03:19:37;;;;;;;14.60;7.10;;;;;;;8.47;51.88;102852.00;5022061;28;20403;-61
2022/10/18 03:22:03;;;;;;;14.53;8.33;;;;;;;8.41;52.36;102851.44;5022177;28;20415;-58
2022/10/18 03:25:29;;;;;;;15.02;8.77;;;;;;;8.42;51.83;102855.78;5061423;27;20408;-59
2022/10/18 03:28:48;;;;;;;13.13;8.48;;;;;;;8.34;51.84;102846.69;5079902;27;20398;-60
2022/10/18 03:31:13;;;;;;;16.50;8.63;;;;;;;8.33;52.08;102853.72;5043463;28;20397;-60
2022/10/18 03:33:39;;;;;;;17.70;7.55;;;;;;;8.35;52.02;102856.28;5044239;28;20386;-60
2022/10/18 03:36:05;;;;;;;17.93;8.20;;;;;;;8.29;52.09;102846.97;5043950;28;20393;-60
2022/10/18 03:38:30;;;;;;;16.30;7.77;;;;;;;8.32;52.31;102867.91;5042615;28;20850;-59
2022/10/18 03:40:56;;;;;;;16.00;14.25;;;;;;;8.23;51.96;102842.09;5042709;28;20492;-60
2022/10/18 03:43:22;;;;;;;16.17;10.63;;;;;;;8.25;51.93;102845.50;5041471;28;20889;-59
2022/10/18 03:45:47;;;;;;;16.63;11.57;;;;;;;8.22;52.24;102843.88;5043511;28;20812;-59
2022/10/18 03:48:13;;;;;;;19.37;13.20;;;;;;;8.24;51.92;102852.53;5041498;28;20417;-60
2022/10/18 03:50:38;;;;;;;12.13;8.52;;;;;;;8.27;52.00;102864.72;5039249;28;20486;-60
2022/10/18 03:53:03;;;;;;;11.47;7.63;;;;;;;8.21;52.21;102860.69;5038266;28;20378;-60
2022/10/18 03:55:29;;;;;;;10.70;8.23;;;;;;;8.20;52.21;102864.28;5026525;28;20383;-60
2022/10/18 03:57:54;;;;;;;13.98;8.98;;;;;;;8.17;52.43;102867.09;5029108;28;20391;-61
2022/10/18 04:00:20;;;;;;;16.50;11.93;;;;;;;8.15;52.38;102866.38;5028961;28;20397;-61
2022/10/18 04:02:45;;;;;;;23.83;16.27;;;;;;;8.12;52.61;102869.22;5042910;28;20385;-61
2022/10/18 04:05:11;;;;;;;15.85;11.13;;;;;;;8.09;52.38;102864.16;5030143;28;20387;-61
2022/10/18 04:07:37;;;;;;;15.25;9.32;;;;;;;8.06;52.73;102864.34;5031787;28;20411;-62
2022/10/18 04:10:03;;;;;;;15.07;8.63;;;;;;;8.08;52.59;102867.72;5041333;28;20430;-60
2022/10/18 04:12:28;;;;;;;14.75;8.05;;;;;;;8.03;52.48;102867.16;5037667;28;20385;-62
2022/10/18 04:14:54;;;;;;;14.93;7.70;;;;;;;7.97;52.46;102863.13;5037083;28;20410;-63
2022/10/18 04:17:19;;;;;;;16.97;8.07;;;;;;;7.94;52.74;102863.38;5031098;28;20437;-61
2022/10/18 04:21:17;;;;;;;13.27;8.10;;;;;;;7.94;52.64;102858.06;5076631;27;20402;-60
2022/10/18 04:23:42;;;;;;;16.73;8.13;;;;;;;7.96;52.90;102857.94;5056872;28;20403;-60
2022/10/18 04:26:08;;;;;;;17.27;8.10;;;;;;;7.93;52.94;102855.53;5054728;28;20388;-62
2022/10/18 04:28:38;;;;;;;15.07;8.90;;;;;;;7.94;52.93;102859.84;5053568;28;20401;-60
2022/10/18 04:33:18;;;;;;;17.33;8.40;;;;;;;7.98;52.92;102862.19;5065313;27;20406;-60
2022/10/18 04:36:06;;;;;;;24.53;8.47;;;;;;;8.00;53.31;102868.22;5117950;27;926577;-60
2022/10/18 04:38:32;;;;;;;15.40;8.97;;;;;;;8.02;53.15;102871.63;5143343;27;20500;-62
2022/10/18 04:40:57;;;;;;;17.60;8.77;;;;;;;8.02;53.09;102873.41;5144833;27;20380;-61
2022/10/18 04:43:40;;;;;;;17.90;8.63;;;;;;;7.98;53.02;102875.41;5074219;27;20395;-60
2022/10/18 04:48:07;;;;;;;21.10;9.43;;;;;;;7.92;53.23;102877.59;5084280;27;20402;-61
2022/10/18 04:50:41;;;;;;;23.08;9.63;;;;;;;7.95;52.97;102874.75;5075678;27;20399;-65
2022/10/18 04:54:18;;;;;;;20.10;10.10;;;;;;;7.94;53.24;102878.34;5075796;27;20399;-61
2022/10/18 04:56:44;;;;;;;20.98;9.40;;;;;;;7.94;53.04;102887.13;5033828;28;20407;-61
2022/10/18 05:01:11;;;;;;;16.70;9.63;;;;;;;7.95;53.27;102877.41;5071777;27;20400;-62
2022/10/18 05:03:37;;;;;;;17.27;9.98;;;;;;;7.96;53.08;102882.59;5032841;28;20932;-60
2022/10/18 05:06:04;;;;;;;24.83;10.98;;;;;;;7.94;53.35;102880.97;5029085;28;20380;-60
2022/10/18 05:08:31;;;;;;;21.83;10.55;;;;;;;8.03;53.32;102883.00;5028739;28;20431;-60
2022/10/18 05:10:57;;;;;;;24.77;12.10;;;;;;;8.00;53.08;102876.16;5029571;28;20437;-62
2022/10/18 05:13:22;;;;;;;21.43;11.10;;;;;;;8.02;53.46;102874.25;5026145;28;20470;-60
2022/10/18 05:15:48;;;;;;;28.10;13.23;;;;;;;8.04;53.19;102879.44;5029369;28;20388;-62
2022/10/18 05:18:13;;;;;;;20.67;12.27;;;;;;;8.08;53.26;102891.50;5043479;28;20531;-61
2022/10/18 05:22:53;;;;;;;29.67;15.85;;;;;;;8.00;54.97;102880.59;5090221;27;20475;-59
2022/10/18 05:26:52;;;;;;;21.77;14.20;;;;;;;8.09;54.81;102873.88;5064702;27;20762;-61
2022/10/18 05:29:18;;;;;;;24.50;15.45;;;;;;;8.16;54.43;102881.28;5025752;28;20399;-60
2022/10/18 05:35:41;;;;;;;24.50;15.82;;;;;;;8.52;54.13;102886.91;5086010;27;20399;-61
2022/10/18 05:38:07;;;;;;;28.23;16.30;;;;;;;8.57;53.85;102880.38;5039643;28;21026;-61
2022/10/18 05:40:33;;;;;;;26.27;15.40;;;;;;;8.69;53.73;102893.69;5026740;28;20430;-60
2022/10/18 05:42:58;;;;;;;25.47;16.03;;;;;;;8.76;53.31;102892.34;5026826;28;20389;-60
2022/10/18 05:45:24;;;;;;;24.80;15.50;;;;;;;8.86;53.69;102896.06;5026592;28;20391;-60
2022/10/18 05:47:49;;;;;;;27.25;15.05;;;;;;;8.99;53.28;102898.69;5035323;28;20381;-61
2022/10/18 05:52:58;;;;;;;25.17;13.90;;;;;;;9.05;52.95;102897.41;5070878;27;20407;-60
2022/10/18 05:55:23;;;;;;;30.80;14.63;;;;;;;9.10;53.17;102901.44;5046281;28;20420;-60
2022/10/18 05:57:49;;;;;;;26.45;14.48;;;;;;;9.07;53.31;102898.16;5046811;28;20393;-60
2022/10/18 06:00:16;;;;;;;29.23;15.50;;;;;;;9.03;53.89;102891.41;5046103;28;20741;-59
2022/10/18 06:02:41;;;;;;;22.83;14.50;;;;;;;9.15;53.69;102895.84;5031922;28;20744;-59
2022/10/18 06:05:07;;;;;;;21.87;14.70;;;;;;;9.21;53.46;102892.75;5046683;28;20470;-59
2022/10/18 06:07:32;;;;;;;22.08;14.93;;;;;;;9.32;53.87;102902.59;5033015;28;20808;-60
2022/10/18 06:09:58;;;;;;;27.97;14.47;;;;;;;9.44;53.45;102900.88;5046392;28;20384;-60
2022/10/18 06:14:54;;;;;;;23.42;14.82;;;;;;;9.71;52.72;102906.00;5088456;27;20400;-63
2022/10/18 06:17:19;;;;;;;22.50;15.60;;;;;;;9.83;52.44;102901.63;5046476;28;20763;-62
2022/10/18 06:19:45;;;;;;;20.93;14.90;;;;;;;9.80;52.56;102894.75;5046158;28;20400;-59
2022/10/18 06:22:11;;;;;;;24.47;16.00;;;;;;;10.04;52.33;102901.88;5046740;28;20845;-59
2022/10/18 06:24:36;;;;;;;23.47;15.40;;;;;;;10.21;51.75;102901.47;5046544;28;20393;-59
2022/10/18 06:28:40;;;;;;;20.65;13.95;;;;;;;10.46;51.29;102895.22;5070831;27;20407;-60
2022/10/18 06:31:06;;;;;;;22.98;14.30;;;;;;;10.59;51.14;102899.56;5046625;28;20394;-59
2022/10/18 06:33:33;;;;;;;20.77;13.70;;;;;;;10.83;51.12;102905.66;5038555;28;20378;-60
2022/10/18 06:36:01;;;;;;;20.00;14.57;;;;;;;11.04;50.81;102897.03;5045451;28;20459;-60
2022/10/18 06:38:28;;;;;;;15.93;12.03;;;;;;;11.02;51.08;102890.97;5028633;28;20395;-59
2022/10/18 06:40:54;;;;;;;15.18;11.45;;;;;;;11.09;51.14;102893.06;5038406;28;20393;-59
2022/10/18 06:43:20;;;;;;;14.32;11.77;;;;;;;11.15;51.53;102891.72;5045835;28;20420;-59
2022/10/18 06:45:46;;;;;;;13.60;11.15;;;;;;;11.27;51.22;102890.75;5045963;28;20389;-60
2022/10/18 06:48:12;;;;;;;16.30;11.00;;;;;;;11.31;51.36;102902.00;5046007;28;20413;-60
2022/10/18 06:50:37;;;;;;;15.63;11.15;;;;;;;11.43;51.49;102906.34;5044617;28;20393;-59
2022/10/18 06:53:05;;;;;;;12.53;10.93;;;;;;;11.56;51.21;102903.53;5046306;28;20373;-57
2022/10/18 06:55:30;;;;;;;14.82;12.07;;;;;;;11.65;51.15;102909.94;5046032;28;20907;-60
2022/10/18 06:57:56;;;;;;;15.68;12.30;;;;;;;11.73;51.00;102904.00;5035425;28;20394;-60
2022/10/18 07:00:22;;;;;;;19.35;12.48;;;;;;;11.88;50.85;102905.41;5042874;28;22185;-60
2022/10/18 07:02:47;;;;;;;17.27;12.20;;;;;;;12.01;50.47;102900.81;5045879;28;20378;-60
2022/10/18 07:05:13;;;;;;;17.70;12.93;;;;;;;12.08;50.21;102895.81;5046050;28;20378;-58
2022/10/18 07:09:02;;;;;;;24.90;13.52;;;;;;;12.24;50.02;102887.44;5077553;27;20404;-58
2022/10/18 07:11:28;;;;;;;20.80;12.98;;;;;;;12.48;49.64;102894.31;5046783;28;20986;-58
2022/10/18 07:13:59;;;;;;;21.10;13.20;;;;;;;12.63;49.14;102879.75;5039827;28;20471;-57
2022/10/18 07:16:25;;;;;;;28.45;13.73;;;;;;;12.66;49.62;102894.59;5026312;28;20743;-58
2022/10/18 07:18:51;;;;;;;20.57;13.17;;;;;;;12.85;49.59;102894.72;5043405;28;20405;-56
2022/10/18 07:21:19;;;;;;;21.80;13.90;;;;;;;13.07;49.22;102888.41;5041009;28;20375;-57
2022/10/18 07:25:40;;;;;;;19.55;13.00;;;;;;;13.33;48.37;102888.81;5069036;27;20406;-57
2022/10/18 07:28:06;;;;;;;21.20;13.75;;;;;;;13.54;47.93;102895.88;5032085;28;20408;-59
2022/10/18 07:30:31;;;;;;;21.27;14.10;;;;;;;13.67;47.30;102882.31;5046468;28;20396;-57
2022/10/18 07:32:57;;;;;;;28.15;14.98;;;;;;;13.63;47.66;102887.09;5043776;28;20424;-58
2022/10/18 07:35:22;;;;;;;22.90;14.87;;;;;;;13.71;47.62;102875.72;5027061;28;20411;-57
2022/10/18 07:37:48;;;;;;;21.57;14.73;;;;;;;13.73;47.32;102876.44;5026928;28;20478;-58
2022/10/18 07:40:13;;;;;;;22.40;14.20;;;;;;;13.83;47.07;102868.44;5046314;28;20401;-58
2022/10/18 07:44:38;;;;;;;20.17;14.82;;;;;;;13.64;47.11;102866.59;5077295;27;20934;-57
2022/10/18 07:47:04;;;;;;;27.33;14.15;;;;;;;13.73;47.60;102871.09;5042295;28;20397;-58
2022/10/18 07:49:29;;;;;;;21.00;14.80;;;;;;;13.92;47.26;102863.13;5037947;28;20394;-57
2022/10/18 07:51:55;;;;;;;20.60;13.20;;;;;;;14.04;47.71;102860.31;5040781;28;20382;-58
2022/10/18 07:54:21;;;;;;;18.37;14.40;;;;;;;14.03;47.50;102861.31;5039971;28;20374;-58
2022/10/18 07:56:47;;;;;;;19.13;14.20;;;;;;;13.99;47.99;102857.22;5033325;28;20386;-56
2022/10/18 07:59:12;;;;;;;26.30;13.70;;;;;;;14.17;48.02;102860.03;5036738;28;20393;-57
2022/10/18 08:01:38;;;;;;;20.30;14.80;;;;;;;14.36;47.50;102857.34;5031398;28;20391;-57
2022/10/18 08:04:04;;;;;;;20.53;14.40;;;;;;;14.26;47.13;102857.38;5034847;28;20465;-57
2022/10/18 08:06:29;;;;;;;20.00;14.20;;;;;;;14.17;47.45;102863.56;5018950;28;20393;-57
2022/10/18 08:08:55;;;;;;;21.25;14.57;;;;;;;14.18;47.93;102862.56;5031832;28;20381;-59
2022/10/18 08:11:23;;;;;;;23.97;14.80;;;;;;;14.45;47.13;102853.81;5010155;28;20401;-59
2022/10/18 08:13:49;;;;;;;18.67;14.13;;;;;;;14.56;47.08;102854.66;5014272;28;20391;-62
2022/10/18 08:16:42;;;;;;;24.90;16.02;;;;;;;14.32;47.66;102859.47;5082527;27;20949;-59
2022/10/18 08:19:07;;;;;;;19.60;14.60;;;;;;;14.37;47.58;102855.53;5029882;28;20403;-60
2022/10/18 08:21:32;;;;;;;19.73;15.47;;;;;;;14.49;47.41;102854.38;5026850;28;20380;-58
2022/10/18 08:23:58;;;;;;;22.67;15.05;;;;;;;14.79;47.50;102852.53;5034438;28;20451;-58
2022/10/18 08:26:23;;;;;;;20.27;14.97;;;;;;;14.98;46.96;102840.91;5044833;28;20394;-58
2022/10/18 08:28:49;;;;;;;23.80;14.88;;;;;;;15.23;46.54;102845.59;5045433;28;20377;-58
2022/10/18 08:31:17;;;;;;;21.52;14.50;;;;;;;15.43;46.14;102849.00;5040286;28;20424;-60
2022/10/18 08:33:44;;;;;;;18.00;14.43;;;;;;;15.38;45.84;102837.09;5043022;28;20420;-59
2022/10/18 08:36:12;;;;;;;22.33;15.10;;;;;;;15.59;45.88;102843.00;5042552;28;20409;-59
2022/10/18 08:38:39;;;;;;;22.77;14.55;;;;;;;15.51;45.57;102826.03;5026657;28;20406;-59
2022/10/18 08:41:24;;;;;;;19.90;14.63;;;;;;;15.56;45.70;102829.09;5029571;28;20470;-59
2022/10/18 08:44:04;;;;;;;18.15;14.57;;;;;;;15.59;45.64;102818.09;5018219;28;20388;-60
2022/10/18 08:46:31;;;;;;;21.90;14.02;;;;;;;15.62;45.45;102825.81;5029107;28;20914;-60
2022/10/18 08:48:58;;;;;;;20.13;14.38;;;;;;;15.60;45.33;102822.44;5026646;28;20383;-59
2022/10/18 08:51:38;;;;;;;18.05;14.00;;;;;;;15.62;45.22;102823.97;5029712;28;20382;-58
2022/10/18 08:54:17;;;;;;;22.98;13.95;;;;;;;15.64;45.06;102815.81;5026338;28;20391;-58
2022/10/18 08:56:48;;;;;;;19.73;13.77;;;;;;;15.65;45.18;102812.97;5029651;28;20401;-58
2022/10/18 08:59:13;;;;;;;20.45;14.30;;;;;;;15.72;44.89;102807.00;5026187;28;20884;-58
2022/10/18 09:02:00;;;;;;;17.50;13.43;;;;;;;15.79;44.72;102803.63;5029307;28;20378;-58
2022/10/18 09:04:47;;;;;;;19.80;13.37;;;;;;;15.70;45.00;102801.84;5026043;28;20391;-59
2022/10/18 09:07:15;;;;;;;20.33;12.90;;;;;;;15.88;44.79;102793.81;5028395;28;20525;-59
2022/10/18 09:09:52;;;;;;;21.43;13.97;;;;;;;16.14;44.61;102788.53;5026000;28;20392;-59
2022/10/18 09:15:59;;;;;;;20.00;13.68;;;;;;;16.20;44.25;102784.38;5073946;27;20399;-60
2022/10/18 09:18:50;;;;;;;20.55;13.85;;;;;;;16.13;44.43;102776.13;5046752;28;20419;-59
2022/10/18 09:21:23;;;;;;;18.10;13.88;;;;;;;16.25;44.36;102774.03;5035026;28;20426;-60
2022/10/18 09:24:10;;;;;;;16.25;13.00;;;;;;;16.33;44.14;102775.94;5046778;28;20485;-59
2022/10/18 09:27:16;;;;;;;19.08;13.68;;;;;;;16.07;44.05;102770.59;5042504;28;20831;-59
2022/10/18 09:29:41;;;;;;;19.60;13.57;;;;;;;16.08;44.40;102770.44;5032014;28;20394;-59
2022/10/18 09:32:37;;;;;;;22.07;12.60;;;;;;;16.03;44.22;102770.06;5046715;28;20512;-60
2022/10/18 09:35:12;;;;;;;16.95;12.32;;;;;;;16.08;44.15;102761.53;5032744;28;20969;-63
2022/10/18 09:37:39;;;;;;;19.80;14.73;;;;;;;16.21;44.16;102770.00;5046132;28;20390;-61
2022/10/18 09:40:23;;;;;;;19.98;13.25;;;;;;;16.05;44.40;102766.22;5090449;27;20415;-59
2022/10/18 09:42:57;;;;;;;19.15;12.77;;;;;;;15.93;44.80;102767.44;5046618;28;20409;-60
2022/10/18 09:45:25;;;;;;;16.85;12.55;;;;;;;15.93;44.37;102761.28;5039644;28;20376;-63
2022/10/18 09:48:04;;;;;;;18.02;12.90;;;;;;;16.05;44.09;102766.22;5040133;28;20398;-59
2022/10/18 09:51:01;;;;;;;15.77;12.13;;;;;;;16.09;43.98;102752.53;5046751;28;20398;-60
2022/10/18 09:53:45;;;;;;;20.23;12.30;;;;;;;16.14;43.87;102760.94;5041439;28;20489;-59
2022/10/18 09:56:23;;;;;;;20.42;13.27;;;;;;;16.13;43.98;102753.88;5046750;28;20424;-59
2022/10/18 09:58:50;;;;;;;15.95;12.57;;;;;;;16.22;43.70;102744.91;5046296;28;20417;-59
2022/10/18 10:01:23;;;;;;;18.17;12.52;;;;;;;16.34;43.57;102746.34;5034876;28;20383;-59
2022/10/18 10:03:49;;;;;;;19.45;13.30;;;;;;;16.37;43.54;102745.19;5045265;28;20394;-59
2022/10/18 10:06:22;;;;;;;16.67;13.30;;;;;;;16.25;43.58;102732.06;5046242;28;20472;-59
2022/10/18 10:09:12;;;;;;;18.65;13.18;;;;;;;16.34;43.54;102732.13;5046099;28;20389;-58
2022/10/18 10:11:46;;;;;;;19.20;12.90;;;;;;;16.44;43.72;102716.78;5045674;28;20538;-59
2022/10/18 10:14:15;;;;;;;19.17;12.90;;;;;;;16.48;43.55;102720.81;5046324;28;20390;-60
2022/10/18 10:16:57;;;;;;;18.15;12.98;;;;;;;16.51;43.28;102711.63;5037530;28;20391;-60
2022/10/18 10:19:22;;;;;;;20.20;12.75;;;;;;;16.68;43.26;102710.69;5019972;28;20453;-60
2022/10/18 10:21:50;;;;;;;20.95;13.02;;;;;;;16.71;43.28;102706.84;5033425;28;20423;-60
2022/10/18 10:24:28;;;;;;;17.37;11.97;;;;;;;16.75;43.19;102695.66;5024947;28;20431;-59
2022/10/18 10:27:15;;;;;;;13.38;11.40;;;;;;;16.79;43.10;102693.50;5024446;28;20403;-58
2022/10/18 10:29:47;;;;;;;17.45;12.23;;;;;;;16.75;42.73;102681.44;5025603;28;20395;-61
2022/10/18 10:32:18;;;;;;;19.58;11.73;;;;;;;16.82;42.63;102672.56;5025441;28;20396;-60
2022/10/18 10:34:45;;;;;;;19.70;11.37;;;;;;;17.01;42.56;102673.31;5024778;28;20384;-60
2022/10/18 10:37:22;;;;;;;16.73;11.40;;;;;;;16.97;42.32;102656.72;5025786;28;20901;-60
2022/10/18 10:40:24;;;;;;;16.98;11.73;;;;;;;17.03;42.56;102659.75;5025594;28;20435;-60
2022/10/18 10:42:55;;;;;;;17.25;11.80;;;;;;;17.06;42.30;102649.53;5023079;28;20405;-58
2022/10/18 10:45:22;;;;;;;15.90;11.10;;;;;;;17.17;42.35;102653.75;5036104;28;20397;-59
2022/10/18 10:47:49;;;;;;;15.17;10.33;;;;;;;17.25;41.95;102626.09;5045587;28;20385;-60
2022/10/18 10:51:03;;;;;;;14.50;10.43;;;;;;;17.35;41.23;102632.13;5084694;27;20413;-60
2022/10/18 10:53:34;;;;;;;15.35;10.38;;;;;;;17.42;41.20;102635.81;5027246;28;20466;-59
2022/10/18 10:58:01;;;;;;;16.88;10.52;;;;;;;17.34;40.90;102611.69;5079163;27;20419;-59
2022/10/18 11:01:21;;;;;;;15.43;11.63;;;;;;;17.34;40.93;102612.53;5094122;27;20395;-58
2022/10/18 11:03:48;;;;;;;14.82;11.30;;;;;;;17.43;40.74;102608.03;5052531;28;20492;-58
2022/10/18 11:06:54;;;;;;;18.50;12.40;;;;;;;17.50;40.67;102594.75;5060357;28;20386;-60
2022/10/18 11:09:58;;;;;;;16.02;11.60;;;;;;;17.60;39.99;102594.59;5027053;28;20402;-60
2022/10/18 11:14:25;;;;;;;20.38;12.45;;;;;;;17.77;39.96;102588.16;5078518;27;20921;-59
2022/10/18 11:17:14;;;;;;;19.35;11.60;;;;;;;17.86;39.48;102587.19;5027205;28;20892;-59
2022/10/18 11:20:01;;;;;;;17.17;10.73;;;;;;;17.81;38.83;102578.78;5014241;28;20797;-59
2022/10/18 11:22:33;;;;;;;18.60;10.80;;;;;;;17.78;38.58;102573.75;5027051;28;20442;-60
2022/10/18 11:25:00;;;;;;;18.55;11.70;;;;;;;17.92;38.43;102565.00;5026818;28;20383;-58
2022/10/18 11:27:33;;;;;;;21.35;11.75;;;;;;;17.93;38.34;102565.84;5023270;28;20383;-59
2022/10/18 11:30:23;;;;;;;16.17;11.10;;;;;;;17.95;38.00;102548.59;5026732;28;20379;-59
2022/10/18 11:33:01;;;;;;;19.42;12.35;;;;;;;18.02;37.93;102540.66;5026327;28;20498;-59
2022/10/18 11:35:58;;;;;;;18.30;11.77;;;;;;;18.05;37.88;102534.94;5026733;28;20413;-59
2022/10/18 11:38:31;;;;;;;19.42;12.52;;;;;;;18.11;38.14;102533.41;5017664;28;20410;-58
2022/10/18 11:41:05;;;;;;;19.77;12.45;;;;;;;18.18;38.08;102531.69;5016264;28;20396;-59
2022/10/18 11:43:59;;;;;;;18.52;11.98;;;;;;;18.18;38.21;102514.75;5025688;28;20387;-59
2022/10/18 11:49:33;;;;;;;20.08;12.80;;;;;;;18.40;37.93;102497.84;5080172;27;20460;-59
2022/10/18 11:52:10;;;;;;;21.02;13.10;;;;;;;18.41;37.61;102488.75;5023255;28;20446;-61
2022/10/18 11:54:45;;;;;;;18.07;13.60;;;;;;;18.49;37.44;102496.78;5026620;28;20782;-62
2022/10/18 11:57:13;;;;;;;20.30;14.63;;;;;;;18.53;37.43;102478.44;5023699;28;20383;-59
2022/10/18 11:59:44;;;;;;;18.35;14.10;;;;;;;18.64;37.31;102480.69;5026873;28;20889;-60
2022/10/18 12:02:32;;;;;;;23.92;16.65;;;;;;;18.70;36.87;102471.91;5026234;28;20905;-59
2022/10/18 12:05:01;;;;;;;20.05;16.00;;;;;;;18.67;36.37;102466.06;5026627;28;20383;-57
2022/10/18 12:07:35;;;;;;;20.90;15.48;;;;;;;18.74;36.27;102464.31;5023444;28;20439;-62
2022/10/18 12:10:03;;;;;;;22.42;15.13;;;;;;;18.80;35.62;102462.75;5023702;28;20395;-59
2022/10/18 12:12:32;;;;;;;22.75;14.73;;;;;;;18.80;35.37;102454.69;5020202;28;20395;-59
2022/10/18 12:15:01;;;;;;;18.98;14.55;;;;;;;18.84;35.02;102451.50;5026809;28;20387;-59
2022/10/18 12:17:29;;;;;;;18.75;13.80;;;;;;;18.89;34.39;102459.88;5022973;28;20820;-59
2022/10/18 12:19:58;;;;;;;18.20;15.00;;;;;;;18.96;34.33;102453.75;5026490;28;20388;-59
2022/10/18 12:22:41;;;;;;;22.80;15.43;;;;;;;19.01;34.50;102437.91;5023034;28;20489;-59
2022/10/18 12:25:16;;;;;;;24.38;14.18;;;;;;;19.08;34.29;102445.03;5026403;28;20379;-59
2022/10/18 12:27:53;;;;;;;20.13;15.20;;;;;;;19.01;34.10;102432.53;5012053;28;20417;-59
2022/10/18 12:30:26;;;;;;;21.67;15.35;;;;;;;19.10;34.11;102428.72;5026056;28;20398;-60
2022/10/18 12:33:03;;;;;;;22.08;14.50;;;;;;;19.14;33.74;102419.31;5023101;28;20797;-59
2022/10/18 12:37:39;;;;;;;23.77;17.48;;;;;;;19.17;33.69;102410.03;5087276;27;20411;-60
2022/10/18 12:40:16;;;;;;;24.60;18.38;;;;;;;19.17;34.01;102413.53;5032272;28;20822;-60
2022/10/18 12:42:45;;;;;;;24.40;18.85;;;;;;;19.24;34.25;102406.41;5046732;28;20394;-61
2022/10/18 12:45:45;;;;;;;23.27;19.05;;;;;;;19.25;34.21;102399.19;5027176;28;20395;-59
2022/10/18 12:48:38;;;;;;;38.03;26.85;;;;;;;19.37;34.16;102394.16;5026376;28;20406;-59
2022/10/18 12:53:01;;;;;;;50.55;44.00;;;;;;;19.34;33.22;102400.75;5073509;27;20411;-59
2022/10/18 12:55:35;;;;;;;48.20;41.90;;;;;;;19.34;32.84;102392.69;5026742;28;20787;-60
2022/10/18 12:58:03;;;;;;;49.60;40.58;;;;;;;19.42;32.43;102387.19;5014089;28;20397;-59
2022/10/18 13:00:29;;;;;;;48.03;38.40;;;;;;;19.46;32.25;102387.63;5006920;28;20401;-60